sensor_id;sensor_type;location;lat;lon;timestamp;P1;durP1;ratioP1;P2;durP2;ratioP2
12312;SDS011;6220;53.580;9.758;2023-12-20T00:01:21;9.70;;;4.90;;
12312;SDS011;6220;53.580;9.758;2023-12-20T00:03:47;14.23;;;4.30;;
12312;SDS011;6220;53.580;9.758;2023-12-20T00:06:12;10.53;;;2.63;;
12312;SDS011;6220;53.580;9.758;2023-12-20T00:08:37;12.10;;;2.63;;
12312;SDS011;6220;53.580;9.758;2023-12-20T00:11:04;12.03;;;3.03;;
12312;SDS011;6220;53.580;9.758;2023-12-20T00:13:29;12.07;;;3.20;;
12312;SDS011;6220;53.580;9.758;2023-12-20T00:15:54;10.67;;;2.40;;
12312;SDS011;6220;53.580;9.758;2023-12-20T00:18:20;10.60;;;2.80;;
12312;SDS011;6220;53.580;9.758;2023-12-20T00:20:45;11.10;;;2.77;;
12312;SDS011;6220;53.580;9.758;2023-12-20T00:23:10;8.20;;;2.70;;
12312;SDS011;6220;53.580;9.758;2023-12-20T00:25:36;11.30;;;3.00;;
12312;SDS011;6220;53.580;9.758;2023-12-20T00:28:01;10.23;;;2.73;;
12312;SDS011;6220;53.580;9.758;2023-12-20T00:30:28;10.13;;;2.60;;
12312;SDS011;6220;53.580;9.758;2023-12-20T00:32:53;10.33;;;2.50;;
12312;SDS011;6220;53.580;9.758;2023-12-20T00:35:18;15.33;;;3.10;;
12312;SDS011;6220;53.580;9.758;2023-12-20T00:37:44;13.60;;;3.07;;
12312;SDS011;6220;53.580;9.758;2023-12-20T00:40:09;12.63;;;2.70;;
12312;SDS011;6220;53.580;9.758;2023-12-20T00:42:35;12.73;;;3.50;;
12312;SDS011;6220;53.580;9.758;2023-12-20T00:45:01;11.23;;;2.57;;
12312;SDS011;6220;53.580;9.758;2023-12-20T00:47:27;13.57;;;3.00;;
12312;SDS011;6220;53.580;9.758;2023-12-20T00:49:52;14.90;;;3.03;;
12312;SDS011;6220;53.580;9.758;2023-12-20T00:52:18;13.60;;;3.60;;
12312;SDS011;6220;53.580;9.758;2023-12-20T00:54:43;12.17;;;3.40;;
12312;SDS011;6220;53.580;9.758;2023-12-20T00:57:09;14.00;;;3.37;;
12312;SDS011;6220;53.580;9.758;2023-12-20T00:59:35;12.30;;;2.83;;
12312;SDS011;6220;53.580;9.758;2023-12-20T01:02:00;11.97;;;3.50;;
12312;SDS011;6220;53.580;9.758;2023-12-20T01:04:26;13.90;;;3.00;;
12312;SDS011;6220;53.580;9.758;2023-12-20T01:06:51;12.77;;;2.40;;
12312;SDS011;6220;53.580;9.758;2023-12-20T01:09:17;10.20;;;2.70;;
12312;SDS011;6220;53.580;9.758;2023-12-20T01:11:43;12.67;;;2.83;;
12312;SDS011;6220;53.580;9.758;2023-12-20T01:14:08;9.03;;;2.43;;
12312;SDS011;6220;53.580;9.758;2023-12-20T01:16:34;9.20;;;2.77;;
12312;SDS011;6220;53.580;9.758;2023-12-20T01:18:59;11.63;;;2.80;;
12312;SDS011;6220;53.580;9.758;2023-12-20T01:21:25;12.47;;;2.90;;
12312;SDS011;6220;53.580;9.758;2023-12-20T01:23:50;10.87;;;3.03;;
12312;SDS011;6220;53.580;9.758;2023-12-20T01:26:15;9.87;;;2.70;;
12312;SDS011;6220;53.580;9.758;2023-12-20T01:28:41;10.90;;;2.90;;
12312;SDS011;6220;53.580;9.758;2023-12-20T01:31:07;15.50;;;2.97;;
12312;SDS011;6220;53.580;9.758;2023-12-20T01:33:32;13.27;;;2.67;;
12312;SDS011;6220;53.580;9.758;2023-12-20T01:35:57;14.93;;;2.90;;
12312;SDS011;6220;53.580;9.758;2023-12-20T01:38:23;10.33;;;2.93;;
12312;SDS011;6220;53.580;9.758;2023-12-20T01:40:48;14.73;;;3.07;;
12312;SDS011;6220;53.580;9.758;2023-12-20T01:43:14;15.07;;;3.07;;
12312;SDS011;6220;53.580;9.758;2023-12-20T01:45:39;10.80;;;2.60;;
12312;SDS011;6220;53.580;9.758;2023-12-20T01:48:05;12.57;;;2.70;;
12312;SDS011;6220;53.580;9.758;2023-12-20T01:50:31;14.77;;;2.77;;
12312;SDS011;6220;53.580;9.758;2023-12-20T01:52:57;11.57;;;2.87;;
12312;SDS011;6220;53.580;9.758;2023-12-20T01:55:24;12.53;;;3.00;;
12312;SDS011;6220;53.580;9.758;2023-12-20T01:57:50;11.63;;;2.97;;
12312;SDS011;6220;53.580;9.758;2023-12-20T02:00:16;10.83;;;2.97;;
12312;SDS011;6220;53.580;9.758;2023-12-20T02:02:42;14.73;;;3.43;;
12312;SDS011;6220;53.580;9.758;2023-12-20T02:05:08;11.50;;;3.07;;
12312;SDS011;6220;53.580;9.758;2023-12-20T02:07:34;15.93;;;2.87;;
12312;SDS011;6220;53.580;9.758;2023-12-20T02:10:03;9.90;;;2.77;;
12312;SDS011;6220;53.580;9.758;2023-12-20T02:12:31;12.30;;;3.17;;
12312;SDS011;6220;53.580;9.758;2023-12-20T02:14:56;11.17;;;2.87;;
12312;SDS011;6220;53.580;9.758;2023-12-20T02:17:23;18.70;;;4.20;;
12312;SDS011;6220;53.580;9.758;2023-12-20T02:19:50;10.20;;;2.50;;
12312;SDS011;6220;53.580;9.758;2023-12-20T02:22:16;10.70;;;2.93;;
12312;SDS011;6220;53.580;9.758;2023-12-20T02:24:41;14.87;;;3.40;;
12312;SDS011;6220;53.580;9.758;2023-12-20T02:27:07;10.73;;;3.40;;
12312;SDS011;6220;53.580;9.758;2023-12-20T02:29:33;11.23;;;2.80;;
12312;SDS011;6220;53.580;9.758;2023-12-20T02:31:59;11.37;;;2.97;;
12312;SDS011;6220;53.580;9.758;2023-12-20T02:34:25;9.93;;;2.63;;
12312;SDS011;6220;53.580;9.758;2023-12-20T02:36:52;12.10;;;2.40;;
12312;SDS011;6220;53.580;9.758;2023-12-20T02:39:21;10.10;;;2.20;;
12312;SDS011;6220;53.580;9.758;2023-12-20T02:41:47;12.33;;;2.67;;
12312;SDS011;6220;53.580;9.758;2023-12-20T02:44:13;11.03;;;3.00;;
12312;SDS011;6220;53.580;9.758;2023-12-20T02:46:38;10.80;;;2.80;;
12312;SDS011;6220;53.580;9.758;2023-12-20T02:49:05;13.83;;;4.87;;
12312;SDS011;6220;53.580;9.758;2023-12-20T02:51:31;11.63;;;3.07;;
12312;SDS011;6220;53.580;9.758;2023-12-20T02:53:56;9.87;;;2.50;;
12312;SDS011;6220;53.580;9.758;2023-12-20T02:56:22;12.73;;;2.70;;
12312;SDS011;6220;53.580;9.758;2023-12-20T02:58:47;10.83;;;2.57;;
12312;SDS011;6220;53.580;9.758;2023-12-20T03:01:12;6.87;;;2.67;;
12312;SDS011;6220;53.580;9.758;2023-12-20T03:03:38;12.20;;;2.60;;
12312;SDS011;6220;53.580;9.758;2023-12-20T03:06:04;9.30;;;2.70;;
12312;SDS011;6220;53.580;9.758;2023-12-20T03:08:30;16.57;;;3.67;;
12312;SDS011;6220;53.580;9.758;2023-12-20T03:10:55;10.37;;;2.53;;
12312;SDS011;6220;53.580;9.758;2023-12-20T03:13:20;13.33;;;3.87;;
12312;SDS011;6220;53.580;9.758;2023-12-20T03:15:47;8.53;;;2.40;;
12312;SDS011;6220;53.580;9.758;2023-12-20T03:18:14;14.00;;;2.70;;
12312;SDS011;6220;53.580;9.758;2023-12-20T03:20:39;11.43;;;3.17;;
12312;SDS011;6220;53.580;9.758;2023-12-20T03:23:06;13.03;;;2.93;;
12312;SDS011;6220;53.580;9.758;2023-12-20T03:25:32;9.50;;;2.33;;
12312;SDS011;6220;53.580;9.758;2023-12-20T03:27:57;7.27;;;2.43;;
12312;SDS011;6220;53.580;9.758;2023-12-20T03:30:22;9.67;;;2.83;;
12312;SDS011;6220;53.580;9.758;2023-12-20T03:32:48;13.00;;;2.87;;
12312;SDS011;6220;53.580;9.758;2023-12-20T03:35:14;17.00;;;3.20;;
12312;SDS011;6220;53.580;9.758;2023-12-20T03:37:39;9.80;;;2.80;;
12312;SDS011;6220;53.580;9.758;2023-12-20T03:40:05;14.67;;;3.00;;
12312;SDS011;6220;53.580;9.758;2023-12-20T03:42:30;10.97;;;3.00;;
12312;SDS011;6220;53.580;9.758;2023-12-20T03:44:57;18.23;;;6.23;;
12312;SDS011;6220;53.580;9.758;2023-12-20T03:47:23;8.33;;;2.33;;
12312;SDS011;6220;53.580;9.758;2023-12-20T03:49:48;12.27;;;2.87;;
12312;SDS011;6220;53.580;9.758;2023-12-20T03:52:14;10.50;;;2.80;;
12312;SDS011;6220;53.580;9.758;2023-12-20T03:54:39;10.00;;;3.07;;
12312;SDS011;6220;53.580;9.758;2023-12-20T03:57:07;11.93;;;3.03;;
12312;SDS011;6220;53.580;9.758;2023-12-20T03:59:36;9.33;;;2.90;;
12312;SDS011;6220;53.580;9.758;2023-12-20T04:02:02;12.60;;;2.73;;
12312;SDS011;6220;53.580;9.758;2023-12-20T04:04:27;14.13;;;3.37;;
12312;SDS011;6220;53.580;9.758;2023-12-20T04:06:53;10.30;;;2.73;;
12312;SDS011;6220;53.580;9.758;2023-12-20T04:09:19;6.83;;;2.33;;
12312;SDS011;6220;53.580;9.758;2023-12-20T04:11:45;7.70;;;2.20;;
12312;SDS011;6220;53.580;9.758;2023-12-20T04:14:10;11.07;;;3.27;;
12312;SDS011;6220;53.580;9.758;2023-12-20T04:16:36;12.33;;;2.73;;
12312;SDS011;6220;53.580;9.758;2023-12-20T04:19:01;13.07;;;3.20;;
12312;SDS011;6220;53.580;9.758;2023-12-20T04:21:27;11.80;;;2.83;;
12312;SDS011;6220;53.580;9.758;2023-12-20T04:23:52;10.20;;;3.13;;
12312;SDS011;6220;53.580;9.758;2023-12-20T04:26:18;14.37;;;3.17;;
12312;SDS011;6220;53.580;9.758;2023-12-20T04:28:43;13.33;;;3.17;;
12312;SDS011;6220;53.580;9.758;2023-12-20T04:31:08;10.63;;;2.87;;
12312;SDS011;6220;53.580;9.758;2023-12-20T04:33:33;10.37;;;2.90;;
12312;SDS011;6220;53.580;9.758;2023-12-20T04:35:59;11.43;;;3.13;;
12312;SDS011;6220;53.580;9.758;2023-12-20T04:38:25;6.50;;;2.60;;
12312;SDS011;6220;53.580;9.758;2023-12-20T04:40:50;9.13;;;3.27;;
12312;SDS011;6220;53.580;9.758;2023-12-20T04:43:16;13.07;;;2.90;;
12312;SDS011;6220;53.580;9.758;2023-12-20T04:45:43;8.67;;;3.07;;
12312;SDS011;6220;53.580;9.758;2023-12-20T04:48:08;16.33;;;3.50;;
12312;SDS011;6220;53.580;9.758;2023-12-20T04:50:35;10.80;;;3.00;;
12312;SDS011;6220;53.580;9.758;2023-12-20T04:53:00;8.17;;;2.57;;
12312;SDS011;6220;53.580;9.758;2023-12-20T04:55:29;12.20;;;2.43;;
12312;SDS011;6220;53.580;9.758;2023-12-20T04:57:56;12.97;;;2.80;;
12312;SDS011;6220;53.580;9.758;2023-12-20T05:00:21;12.63;;;3.63;;
12312;SDS011;6220;53.580;9.758;2023-12-20T05:02:46;15.70;;;3.03;;
12312;SDS011;6220;53.580;9.758;2023-12-20T05:05:13;11.70;;;3.70;;
12312;SDS011;6220;53.580;9.758;2023-12-20T05:07:40;10.87;;;2.60;;
12312;SDS011;6220;53.580;9.758;2023-12-20T05:10:06;11.63;;;3.43;;
12312;SDS011;6220;53.580;9.758;2023-12-20T05:12:33;14.60;;;3.27;;
12312;SDS011;6220;53.580;9.758;2023-12-20T05:14:58;15.90;;;3.80;;
12312;SDS011;6220;53.580;9.758;2023-12-20T05:17:24;10.43;;;3.40;;
12312;SDS011;6220;53.580;9.758;2023-12-20T05:19:49;11.40;;;2.80;;
12312;SDS011;6220;53.580;9.758;2023-12-20T05:22:15;9.60;;;2.90;;
12312;SDS011;6220;53.580;9.758;2023-12-20T05:24:42;10.57;;;3.33;;
12312;SDS011;6220;53.580;9.758;2023-12-20T05:27:08;11.03;;;3.53;;
12312;SDS011;6220;53.580;9.758;2023-12-20T05:29:33;17.27;;;3.50;;
12312;SDS011;6220;53.580;9.758;2023-12-20T05:32:01;16.07;;;3.50;;
12312;SDS011;6220;53.580;9.758;2023-12-20T05:34:26;14.67;;;3.70;;
12312;SDS011;6220;53.580;9.758;2023-12-20T05:36:52;12.67;;;3.77;;
12312;SDS011;6220;53.580;9.758;2023-12-20T05:39:17;10.60;;;3.27;;
12312;SDS011;6220;53.580;9.758;2023-12-20T05:41:42;14.90;;;3.50;;
12312;SDS011;6220;53.580;9.758;2023-12-20T05:44:08;13.40;;;3.30;;
12312;SDS011;6220;53.580;9.758;2023-12-20T05:46:33;17.97;;;3.83;;
12312;SDS011;6220;53.580;9.758;2023-12-20T05:49:01;11.37;;;3.03;;
12312;SDS011;6220;53.580;9.758;2023-12-20T05:51:28;13.37;;;3.37;;
12312;SDS011;6220;53.580;9.758;2023-12-20T05:53:55;12.67;;;2.97;;
12312;SDS011;6220;53.580;9.758;2023-12-20T05:56:21;9.27;;;2.70;;
12312;SDS011;6220;53.580;9.758;2023-12-20T05:58:47;11.43;;;3.70;;
12312;SDS011;6220;53.580;9.758;2023-12-20T06:01:14;10.03;;;2.83;;
12312;SDS011;6220;53.580;9.758;2023-12-20T06:03:41;15.63;;;3.70;;
12312;SDS011;6220;53.580;9.758;2023-12-20T06:06:07;14.60;;;3.50;;
12312;SDS011;6220;53.580;9.758;2023-12-20T06:08:33;20.60;;;3.73;;
12312;SDS011;6220;53.580;9.758;2023-12-20T06:10:59;16.40;;;3.90;;
12312;SDS011;6220;53.580;9.758;2023-12-20T06:13:24;15.77;;;3.67;;
12312;SDS011;6220;53.580;9.758;2023-12-20T06:15:51;18.73;;;4.10;;
12312;SDS011;6220;53.580;9.758;2023-12-20T06:18:17;14.50;;;3.33;;
12312;SDS011;6220;53.580;9.758;2023-12-20T06:20:42;12.33;;;3.00;;
12312;SDS011;6220;53.580;9.758;2023-12-20T06:23:10;14.53;;;3.27;;
12312;SDS011;6220;53.580;9.758;2023-12-20T06:25:36;11.67;;;3.17;;
12312;SDS011;6220;53.580;9.758;2023-12-20T06:28:01;18.00;;;3.53;;
12312;SDS011;6220;53.580;9.758;2023-12-20T06:30:26;13.80;;;3.77;;
12312;SDS011;6220;53.580;9.758;2023-12-20T06:32:53;15.60;;;3.40;;
12312;SDS011;6220;53.580;9.758;2023-12-20T06:35:19;17.30;;;3.80;;
12312;SDS011;6220;53.580;9.758;2023-12-20T06:37:44;17.43;;;4.03;;
12312;SDS011;6220;53.580;9.758;2023-12-20T06:40:10;12.43;;;3.47;;
12312;SDS011;6220;53.580;9.758;2023-12-20T06:42:50;11.77;;;3.33;;
12312;SDS011;6220;53.580;9.758;2023-12-20T06:45:15;17.23;;;3.93;;
12312;SDS011;6220;53.580;9.758;2023-12-20T06:47:40;13.00;;;3.10;;
12312;SDS011;6220;53.580;9.758;2023-12-20T06:50:07;13.67;;;2.90;;
12312;SDS011;6220;53.580;9.758;2023-12-20T06:52:33;12.83;;;3.37;;
12312;SDS011;6220;53.580;9.758;2023-12-20T06:55:00;14.33;;;3.37;;
12312;SDS011;6220;53.580;9.758;2023-12-20T06:57:25;12.50;;;3.60;;
12312;SDS011;6220;53.580;9.758;2023-12-20T06:59:52;16.53;;;3.20;;
12312;SDS011;6220;53.580;9.758;2023-12-20T07:02:18;13.27;;;3.43;;
12312;SDS011;6220;53.580;9.758;2023-12-20T07:04:44;15.30;;;3.47;;
12312;SDS011;6220;53.580;9.758;2023-12-20T07:07:09;13.37;;;3.80;;
12312;SDS011;6220;53.580;9.758;2023-12-20T07:09:35;15.87;;;3.47;;
12312;SDS011;6220;53.580;9.758;2023-12-20T07:12:00;16.97;;;3.97;;
12312;SDS011;6220;53.580;9.758;2023-12-20T07:14:25;22.63;;;4.70;;
12312;SDS011;6220;53.580;9.758;2023-12-20T07:16:51;13.03;;;3.53;;
12312;SDS011;6220;53.580;9.758;2023-12-20T07:19:18;17.83;;;3.87;;
12312;SDS011;6220;53.580;9.758;2023-12-20T07:21:43;17.27;;;4.10;;
12312;SDS011;6220;53.580;9.758;2023-12-20T07:24:09;13.90;;;3.50;;
12312;SDS011;6220;53.580;9.758;2023-12-20T07:26:35;16.23;;;4.03;;
12312;SDS011;6220;53.580;9.758;2023-12-20T07:29:04;13.70;;;3.70;;
12312;SDS011;6220;53.580;9.758;2023-12-20T07:31:29;19.53;;;4.03;;
12312;SDS011;6220;53.580;9.758;2023-12-20T07:33:54;15.33;;;4.57;;
12312;SDS011;6220;53.580;9.758;2023-12-20T07:36:21;14.37;;;4.20;;
12312;SDS011;6220;53.580;9.758;2023-12-20T07:38:46;20.07;;;4.13;;
12312;SDS011;6220;53.580;9.758;2023-12-20T07:41:12;20.37;;;3.97;;
12312;SDS011;6220;53.580;9.758;2023-12-20T07:43:37;14.10;;;4.10;;
12312;SDS011;6220;53.580;9.758;2023-12-20T07:46:06;12.80;;;3.70;;
12312;SDS011;6220;53.580;9.758;2023-12-20T07:48:33;15.07;;;3.70;;
12312;SDS011;6220;53.580;9.758;2023-12-20T07:50:59;13.27;;;4.00;;
12312;SDS011;6220;53.580;9.758;2023-12-20T07:53:24;15.07;;;4.00;;
12312;SDS011;6220;53.580;9.758;2023-12-20T07:55:50;20.53;;;5.50;;
12312;SDS011;6220;53.580;9.758;2023-12-20T07:58:17;10.60;;;3.43;;
12312;SDS011;6220;53.580;9.758;2023-12-20T08:00:42;12.60;;;4.30;;
12312;SDS011;6220;53.580;9.758;2023-12-20T08:03:09;16.93;;;4.97;;
12312;SDS011;6220;53.580;9.758;2023-12-20T08:05:34;20.93;;;4.37;;
12312;SDS011;6220;53.580;9.758;2023-12-20T08:07:59;17.37;;;4.27;;
12312;SDS011;6220;53.580;9.758;2023-12-20T08:10:26;15.00;;;3.53;;
12312;SDS011;6220;53.580;9.758;2023-12-20T08:12:54;14.70;;;4.00;;
12312;SDS011;6220;53.580;9.758;2023-12-20T08:15:19;11.00;;;3.43;;
12312;SDS011;6220;53.580;9.758;2023-12-20T08:17:45;13.47;;;4.00;;
12312;SDS011;6220;53.580;9.758;2023-12-20T08:20:10;18.03;;;4.40;;
12312;SDS011;6220;53.580;9.758;2023-12-20T08:22:36;16.50;;;3.93;;
12312;SDS011;6220;53.580;9.758;2023-12-20T08:25:03;15.53;;;3.67;;
12312;SDS011;6220;53.580;9.758;2023-12-20T08:27:29;14.27;;;4.07;;
12312;SDS011;6220;53.580;9.758;2023-12-20T08:29:58;19.37;;;4.07;;
12312;SDS011;6220;53.580;9.758;2023-12-20T08:32:26;17.13;;;4.20;;
12312;SDS011;6220;53.580;9.758;2023-12-20T08:34:51;18.30;;;3.87;;
12312;SDS011;6220;53.580;9.758;2023-12-20T08:37:18;20.70;;;4.47;;
12312;SDS011;6220;53.580;9.758;2023-12-20T08:39:43;15.30;;;4.23;;
12312;SDS011;6220;53.580;9.758;2023-12-20T08:42:09;20.30;;;4.57;;
12312;SDS011;6220;53.580;9.758;2023-12-20T08:44:34;16.40;;;4.33;;
12312;SDS011;6220;53.580;9.758;2023-12-20T08:47:00;11.63;;;3.93;;
12312;SDS011;6220;53.580;9.758;2023-12-20T08:49:25;15.97;;;3.60;;
12312;SDS011;6220;53.580;9.758;2023-12-20T08:51:50;14.00;;;3.47;;
12312;SDS011;6220;53.580;9.758;2023-12-20T08:54:16;14.13;;;3.60;;
12312;SDS011;6220;53.580;9.758;2023-12-20T08:56:42;16.77;;;3.83;;
12312;SDS011;6220;53.580;9.758;2023-12-20T08:59:08;11.10;;;2.93;;
12312;SDS011;6220;53.580;9.758;2023-12-20T09:01:34;12.13;;;3.73;;
12312;SDS011;6220;53.580;9.758;2023-12-20T09:04:00;10.97;;;2.67;;
12312;SDS011;6220;53.580;9.758;2023-12-20T09:06:25;8.20;;;3.20;;
12312;SDS011;6220;53.580;9.758;2023-12-20T09:08:51;9.20;;;2.83;;
12312;SDS011;6220;53.580;9.758;2023-12-20T09:11:16;11.70;;;2.63;;
12312;SDS011;6220;53.580;9.758;2023-12-20T09:13:42;10.30;;;2.27;;
12312;SDS011;6220;53.580;9.758;2023-12-20T09:16:09;11.97;;;2.50;;
12312;SDS011;6220;53.580;9.758;2023-12-20T09:18:34;7.27;;;2.10;;
12312;SDS011;6220;53.580;9.758;2023-12-20T09:21:00;7.40;;;2.20;;
12312;SDS011;6220;53.580;9.758;2023-12-20T09:23:25;7.33;;;1.93;;
12312;SDS011;6220;53.580;9.758;2023-12-20T09:25:50;7.40;;;2.00;;
12312;SDS011;6220;53.580;9.758;2023-12-20T09:28:15;4.93;;;1.40;;
12312;SDS011;6220;53.580;9.758;2023-12-20T09:30:41;5.90;;;1.47;;
12312;SDS011;6220;53.580;9.758;2023-12-20T09:33:07;5.40;;;1.70;;
12312;SDS011;6220;53.580;9.758;2023-12-20T09:35:32;3.23;;;1.10;;
12312;SDS011;6220;53.580;9.758;2023-12-20T09:37:58;1.97;;;1.13;;
12312;SDS011;6220;53.580;9.758;2023-12-20T09:40:23;3.23;;;1.10;;
12312;SDS011;6220;53.580;9.758;2023-12-20T09:42:57;2.53;;;1.10;;
12312;SDS011;6220;53.580;9.758;2023-12-20T09:45:25;1.77;;;1.07;;
12312;SDS011;6220;53.580;9.758;2023-12-20T09:47:51;2.07;;;1.27;;
12312;SDS011;6220;53.580;9.758;2023-12-20T09:50:18;1.80;;;1.07;;
12312;SDS011;6220;53.580;9.758;2023-12-20T09:52:45;3.30;;;1.20;;
12312;SDS011;6220;53.580;9.758;2023-12-20T09:55:11;3.30;;;1.00;;
12312;SDS011;6220;53.580;9.758;2023-12-20T09:57:36;1.97;;;0.97;;
12312;SDS011;6220;53.580;9.758;2023-12-20T10:00:02;2.80;;;1.40;;
12312;SDS011;6220;53.580;9.758;2023-12-20T10:02:28;2.40;;;0.90;;
12312;SDS011;6220;53.580;9.758;2023-12-20T10:04:54;1.57;;;0.90;;
12312;SDS011;6220;53.580;9.758;2023-12-20T10:07:22;3.37;;;1.10;;
12312;SDS011;6220;53.580;9.758;2023-12-20T10:09:47;2.93;;;0.90;;
12312;SDS011;6220;53.580;9.758;2023-12-20T10:12:13;2.33;;;1.10;;
12312;SDS011;6220;53.580;9.758;2023-12-20T10:14:40;5.77;;;1.40;;
12312;SDS011;6220;53.580;9.758;2023-12-20T10:17:06;2.10;;;1.03;;
12312;SDS011;6220;53.580;9.758;2023-12-20T10:19:32;1.70;;;1.10;;
12312;SDS011;6220;53.580;9.758;2023-12-20T10:21:58;1.60;;;0.90;;
12312;SDS011;6220;53.580;9.758;2023-12-20T10:24:24;3.87;;;1.30;;
12312;SDS011;6220;53.580;9.758;2023-12-20T10:27:00;2.77;;;1.00;;
12312;SDS011;6220;53.580;9.758;2023-12-20T10:29:30;4.13;;;1.20;;
12312;SDS011;6220;53.580;9.758;2023-12-20T10:31:58;2.20;;;1.07;;
12312;SDS011;6220;53.580;9.758;2023-12-20T10:34:23;4.53;;;1.53;;
12312;SDS011;6220;53.580;9.758;2023-12-20T10:36:49;5.50;;;1.90;;
12312;SDS011;6220;53.580;9.758;2023-12-20T10:39:16;8.07;;;1.50;;
12312;SDS011;6220;53.580;9.758;2023-12-20T10:41:42;4.43;;;1.40;;
12312;SDS011;6220;53.580;9.758;2023-12-20T10:44:08;4.27;;;1.57;;
12312;SDS011;6220;53.580;9.758;2023-12-20T10:46:34;4.53;;;1.70;;
12312;SDS011;6220;53.580;9.758;2023-12-20T10:48:59;6.80;;;1.73;;
12312;SDS011;6220;53.580;9.758;2023-12-20T10:51:27;6.67;;;1.93;;
12312;SDS011;6220;53.580;9.758;2023-12-20T10:53:54;6.43;;;1.67;;
12312;SDS011;6220;53.580;9.758;2023-12-20T10:56:20;7.83;;;2.07;;
12312;SDS011;6220;53.580;9.758;2023-12-20T10:58:51;7.13;;;1.90;;
12312;SDS011;6220;53.580;9.758;2023-12-20T11:01:17;7.23;;;2.37;;
12312;SDS011;6220;53.580;9.758;2023-12-20T11:03:53;10.53;;;2.50;;
12312;SDS011;6220;53.580;9.758;2023-12-20T11:09:06;6.40;;;1.77;;
12312;SDS011;6220;53.580;9.758;2023-12-20T11:14:25;12.63;;;1.87;;
12312;SDS011;6220;53.580;9.758;2023-12-20T11:17:05;8.33;;;1.93;;
12312;SDS011;6220;53.580;9.758;2023-12-20T11:19:43;6.77;;;1.93;;
12312;SDS011;6220;53.580;9.758;2023-12-20T11:22:24;11.70;;;2.20;;
12312;SDS011;6220;53.580;9.758;2023-12-20T11:24:51;9.20;;;2.33;;
12312;SDS011;6220;53.580;9.758;2023-12-20T11:27:17;9.67;;;2.43;;
12312;SDS011;6220;53.580;9.758;2023-12-20T11:29:51;8.50;;;2.10;;
12312;SDS011;6220;53.580;9.758;2023-12-20T11:34:53;16.43;;;2.97;;
12312;SDS011;6220;53.580;9.758;2023-12-20T11:37:45;13.43;;;3.80;;
12312;SDS011;6220;53.580;9.758;2023-12-20T11:40:16;13.50;;;2.87;;
12312;SDS011;6220;53.580;9.758;2023-12-20T11:42:42;14.00;;;2.87;;
12312;SDS011;6220;53.580;9.758;2023-12-20T11:45:32;10.80;;;2.70;;
12312;SDS011;6220;53.580;9.758;2023-12-20T11:47:59;12.37;;;3.13;;
12312;SDS011;6220;53.580;9.758;2023-12-20T11:50:26;7.80;;;2.50;;
12312;SDS011;6220;53.580;9.758;2023-12-20T11:52:51;8.63;;;2.87;;
12312;SDS011;6220;53.580;9.758;2023-12-20T11:55:17;10.70;;;2.73;;
12312;SDS011;6220;53.580;9.758;2023-12-20T11:57:44;14.37;;;3.07;;
12312;SDS011;6220;53.580;9.758;2023-12-20T12:00:12;12.27;;;2.83;;
12312;SDS011;6220;53.580;9.758;2023-12-20T12:02:38;9.57;;;3.47;;
12312;SDS011;6220;53.580;9.758;2023-12-20T12:05:05;9.03;;;2.87;;
12312;SDS011;6220;53.580;9.758;2023-12-20T12:07:31;14.40;;;2.73;;
12312;SDS011;6220;53.580;9.758;2023-12-20T12:09:57;10.93;;;3.50;;
12312;SDS011;6220;53.580;9.758;2023-12-20T12:12:23;11.83;;;2.83;;
12312;SDS011;6220;53.580;9.758;2023-12-20T12:14:50;15.30;;;3.43;;
12312;SDS011;6220;53.580;9.758;2023-12-20T12:17:15;13.47;;;2.67;;
12312;SDS011;6220;53.580;9.758;2023-12-20T12:19:41;11.53;;;2.97;;
12312;SDS011;6220;53.580;9.758;2023-12-20T12:22:09;11.63;;;2.73;;
12312;SDS011;6220;53.580;9.758;2023-12-20T12:24:40;11.80;;;3.23;;
12312;SDS011;6220;53.580;9.758;2023-12-20T12:27:06;14.17;;;3.47;;
12312;SDS011;6220;53.580;9.758;2023-12-20T12:29:32;11.57;;;2.87;;
12312;SDS011;6220;53.580;9.758;2023-12-20T12:31:58;11.77;;;3.60;;
12312;SDS011;6220;53.580;9.758;2023-12-20T12:34:27;15.50;;;3.40;;
12312;SDS011;6220;53.580;9.758;2023-12-20T12:36:52;15.27;;;3.40;;
12312;SDS011;6220;53.580;9.758;2023-12-20T12:39:18;7.67;;;2.40;;
12312;SDS011;6220;53.580;9.758;2023-12-20T12:41:43;8.87;;;2.83;;
12312;SDS011;6220;53.580;9.758;2023-12-20T12:44:10;10.63;;;2.40;;
12312;SDS011;6220;53.580;9.758;2023-12-20T12:46:36;12.03;;;3.07;;
12312;SDS011;6220;53.580;9.758;2023-12-20T12:49:02;13.00;;;2.90;;
12312;SDS011;6220;53.580;9.758;2023-12-20T12:51:27;10.93;;;3.13;;
12312;SDS011;6220;53.580;9.758;2023-12-20T12:53:53;13.40;;;3.30;;
12312;SDS011;6220;53.580;9.758;2023-12-20T12:56:18;15.80;;;3.63;;
12312;SDS011;6220;53.580;9.758;2023-12-20T12:58:43;12.67;;;3.67;;
12312;SDS011;6220;53.580;9.758;2023-12-20T13:01:09;16.57;;;3.73;;
12312;SDS011;6220;53.580;9.758;2023-12-20T13:03:35;12.27;;;3.33;;
12312;SDS011;6220;53.580;9.758;2023-12-20T13:06:00;14.20;;;3.50;;
12312;SDS011;6220;53.580;9.758;2023-12-20T13:08:26;14.90;;;3.60;;
12312;SDS011;6220;53.580;9.758;2023-12-20T13:10:52;14.10;;;3.63;;
12312;SDS011;6220;53.580;9.758;2023-12-20T13:13:17;14.90;;;3.80;;
12312;SDS011;6220;53.580;9.758;2023-12-20T13:15:42;11.80;;;3.63;;
12312;SDS011;6220;53.580;9.758;2023-12-20T13:18:15;15.57;;;4.30;;
12312;SDS011;6220;53.580;9.758;2023-12-20T13:20:40;15.30;;;3.63;;
12312;SDS011;6220;53.580;9.758;2023-12-20T13:23:06;18.73;;;4.33;;
12312;SDS011;6220;53.580;9.758;2023-12-20T13:25:31;16.87;;;4.40;;
12312;SDS011;6220;53.580;9.758;2023-12-20T13:27:58;24.23;;;4.97;;
12312;SDS011;6220;53.580;9.758;2023-12-20T13:30:24;10.77;;;4.00;;
12312;SDS011;6220;53.580;9.758;2023-12-20T13:32:49;13.00;;;4.47;;
12312;SDS011;6220;53.580;9.758;2023-12-20T13:35:15;18.90;;;4.20;;
12312;SDS011;6220;53.580;9.758;2023-12-20T13:37:41;20.33;;;4.80;;
12312;SDS011;6220;53.580;9.758;2023-12-20T13:40:07;20.20;;;4.63;;
12312;SDS011;6220;53.580;9.758;2023-12-20T13:42:33;19.43;;;4.73;;
12312;SDS011;6220;53.580;9.758;2023-12-20T13:44:58;21.33;;;4.73;;
12312;SDS011;6220;53.580;9.758;2023-12-20T13:47:23;19.37;;;5.10;;
12312;SDS011;6220;53.580;9.758;2023-12-20T13:49:49;22.57;;;4.73;;
12312;SDS011;6220;53.580;9.758;2023-12-20T13:52:15;17.17;;;4.57;;
12312;SDS011;6220;53.580;9.758;2023-12-20T13:54:41;18.97;;;4.47;;
12312;SDS011;6220;53.580;9.758;2023-12-20T13:57:06;13.50;;;4.70;;
12312;SDS011;6220;53.580;9.758;2023-12-20T13:59:32;22.23;;;5.23;;
12312;SDS011;6220;53.580;9.758;2023-12-20T14:01:57;21.43;;;5.27;;
12312;SDS011;6220;53.580;9.758;2023-12-20T14:04:22;16.33;;;5.70;;
12312;SDS011;6220;53.580;9.758;2023-12-20T14:06:48;20.30;;;5.47;;
12312;SDS011;6220;53.580;9.758;2023-12-20T14:09:13;22.47;;;5.90;;
12312;SDS011;6220;53.580;9.758;2023-12-20T14:11:39;19.37;;;4.80;;
12312;SDS011;6220;53.580;9.758;2023-12-20T14:14:06;19.47;;;6.70;;
12312;SDS011;6220;53.580;9.758;2023-12-20T14:16:32;16.03;;;4.73;;
12312;SDS011;6220;53.580;9.758;2023-12-20T14:18:58;20.90;;;5.07;;
12312;SDS011;6220;53.580;9.758;2023-12-20T14:21:23;21.40;;;4.97;;
12312;SDS011;6220;53.580;9.758;2023-12-20T14:23:49;12.03;;;3.60;;
12312;SDS011;6220;53.580;9.758;2023-12-20T14:26:15;12.50;;;4.20;;
12312;SDS011;6220;53.580;9.758;2023-12-20T14:28:41;16.93;;;5.03;;
12312;SDS011;6220;53.580;9.758;2023-12-20T14:31:06;14.20;;;3.67;;
12312;SDS011;6220;53.580;9.758;2023-12-20T14:33:33;18.47;;;5.07;;
12312;SDS011;6220;53.580;9.758;2023-12-20T14:35:58;15.87;;;4.33;;
12312;SDS011;6220;53.580;9.758;2023-12-20T14:38:23;19.43;;;4.80;;
12312;SDS011;6220;53.580;9.758;2023-12-20T14:40:49;13.17;;;3.93;;
12312;SDS011;6220;53.580;9.758;2023-12-20T14:43:15;17.50;;;5.10;;
12312;SDS011;6220;53.580;9.758;2023-12-20T14:45:41;24.67;;;5.40;;
12312;SDS011;6220;53.580;9.758;2023-12-20T14:48:06;18.00;;;4.93;;
12312;SDS011;6220;53.580;9.758;2023-12-20T14:50:33;18.83;;;4.77;;
12312;SDS011;6220;53.580;9.758;2023-12-20T14:52:58;13.87;;;4.10;;